sensor_id;sensor_type;location;lat;lon;timestamp;temperature;humidity
35531;DHT22;21637;53.352;-6.356;2023-08-20T00:01:36;17.20;99.90
35531;DHT22;21637;53.352;-6.356;2023-08-20T00:04:02;17.20;99.90
35531;DHT22;21637;53.352;-6.356;2023-08-20T00:06:29;17.20;99.90
35531;DHT22;21637;53.352;-6.356;2023-08-20T00:08:55;17.10;99.90
35531;DHT22;21637;53.352;-6.356;2023-08-20T00:11:20;17.10;99.90
35531;DHT22;21637;53.352;-6.356;2023-08-20T00:13:46;17.10;99.90
35531;DHT22;21637;53.352;-6.356;2023-08-20T00:16:12;17.00;99.90
35531;DHT22;21637;53.352;-6.356;2023-08-20T00:18:38;16.80;99.90
35531;DHT22;21637;53.352;-6.356;2023-08-20T00:21:05;16.80;99.90
35531;DHT22;21637;53.352;-6.356;2023-08-20T00:23:31;16.80;99.90
35531;DHT22;21637;53.352;-6.356;2023-08-20T00:25:57;16.70;99.90
35531;DHT22;21637;53.352;-6.356;2023-08-20T00:28:22;16.70;99.90
35531;DHT22;21637;53.352;-6.356;2023-08-20T00:30:48;16.70;99.90
35531;DHT22;21637;53.352;-6.356;2023-08-20T00:33:15;16.60;99.90
35531;DHT22;21637;53.352;-6.356;2023-08-20T00:35:40;16.60;99.90
35531;DHT22;21637;53.352;-6.356;2023-08-20T00:38:06;16.60;99.90
35531;DHT22;21637;53.352;-6.356;2023-08-20T00:40:32;16.70;99.90
35531;DHT22;21637;53.352;-6.356;2023-08-20T00:42:58;16.60;99.90
35531;DHT22;21637;53.352;-6.356;2023-08-20T00:45:25;16.70;99.90
35531;DHT22;21637;53.352;-6.356;2023-08-20T00:47:52;16.60;99.90
35531;DHT22;21637;53.352;-6.356;2023-08-20T00:50:18;16.60;99.90
35531;DHT22;21637;53.352;-6.356;2023-08-20T00:52:45;16.60;99.90
35531;DHT22;21637;53.352;-6.356;2023-08-20T00:55:11;16.60;99.90
35531;DHT22;21637;53.352;-6.356;2023-08-20T00:57:39;16.60;99.90
35531;DHT22;21637;53.352;-6.356;2023-08-20T01:00:05;16.60;99.90
35531;DHT22;21637;53.352;-6.356;2023-08-20T01:02:35;16.60;99.90
35531;DHT22;21637;53.352;-6.356;2023-08-20T01:05:02;16.60;99.90
35531;DHT22;21637;53.352;-6.356;2023-08-20T01:12:48;16.60;99.90
35531;DHT22;21637;53.352;-6.356;2023-08-20T01:15:15;16.60;99.90
35531;DHT22;21637;53.352;-6.356;2023-08-20T01:17:42;16.50;99.90
35531;DHT22;21637;53.352;-6.356;2023-08-20T01:20:09;16.60;99.90
35531;DHT22;21637;53.352;-6.356;2023-08-20T01:28:31;16.40;99.90
35531;DHT22;21637;53.352;-6.356;2023-08-20T01:30:58;16.30;99.90
35531;DHT22;21637;53.352;-6.356;2023-08-20T01:33:25;16.30;99.90
35531;DHT22;21637;53.352;-6.356;2023-08-20T01:35:51;16.30;99.90
35531;DHT22;21637;53.352;-6.356;2023-08-20T01:38:17;16.30;99.90
35531;DHT22;21637;53.352;-6.356;2023-08-20T01:40:43;16.30;99.90
35531;DHT22;21637;53.352;-6.356;2023-08-20T01:43:09;16.20;99.90
35531;DHT22;21637;53.352;-6.356;2023-08-20T01:45:34;16.20;99.90
35531;DHT22;21637;53.352;-6.356;2023-08-20T01:48:00;16.10;99.90
35531;DHT22;21637;53.352;-6.356;2023-08-20T01:50:26;16.10;99.90
35531;DHT22;21637;53.352;-6.356;2023-08-20T01:52:52;16.10;99.90
35531;DHT22;21637;53.352;-6.356;2023-08-20T01:55:17;16.00;99.90
35531;DHT22;21637;53.352;-6.356;2023-08-20T01:57:43;16.00;99.90
35531;DHT22;21637;53.352;-6.356;2023-08-20T02:00:09;16.00;99.90
35531;DHT22;21637;53.352;-6.356;2023-08-20T02:02:35;16.00;99.90
35531;DHT22;21637;53.352;-6.356;2023-08-20T02:05:01;16.00;99.90
35531;DHT22;21637;53.352;-6.356;2023-08-20T02:07:28;16.00;99.90
35531;DHT22;21637;53.352;-6.356;2023-08-20T02:09:54;16.00;99.90
35531;DHT22;21637;53.352;-6.356;2023-08-20T02:12:19;16.00;99.90
35531;DHT22;21637;53.352;-6.356;2023-08-20T02:14:45;16.00;99.90
35531;DHT22;21637;53.352;-6.356;2023-08-20T02:17:11;16.00;99.90
35531;DHT22;21637;53.352;-6.356;2023-08-20T02:19:38;15.90;99.90
35531;DHT22;21637;53.352;-6.356;2023-08-20T02:22:03;15.90;99.90
35531;DHT22;21637;53.352;-6.356;2023-08-20T02:24:29;15.90;99.90
35531;DHT22;21637;53.352;-6.356;2023-08-20T02:26:55;15.80;99.90
35531;DHT22;21637;53.352;-6.356;2023-08-20T02:29:21;15.70;99.90
35531;DHT22;21637;53.352;-6.356;2023-08-20T02:31:47;15.70;99.90
35531;DHT22;21637;53.352;-6.356;2023-08-20T02:34:12;15.70;99.90
35531;DHT22;21637;53.352;-6.356;2023-08-20T02:36:38;15.70;99.90
35531;DHT22;21637;53.352;-6.356;2023-08-20T02:39:04;15.60;99.90
35531;DHT22;21637;53.352;-6.356;2023-08-20T02:41:33;15.60;99.90
35531;DHT22;21637;53.352;-6.356;2023-08-20T02:44:00;15.60;99.90
35531;DHT22;21637;53.352;-6.356;2023-08-20T02:46:25;15.60;99.90
35531;DHT22;21637;53.352;-6.356;2023-08-20T02:48:51;15.60;99.90
35531;DHT22;21637;53.352;-6.356;2023-08-20T02:51:17;15.60;99.90
35531;DHT22;21637;53.352;-6.356;2023-08-20T02:53:42;15.60;99.90
35531;DHT22;21637;53.352;-6.356;2023-08-20T02:56:08;15.50;99.90
35531;DHT22;21637;53.352;-6.356;2023-08-20T02:58:34;15.60;99.90
35531;DHT22;21637;53.352;-6.356;2023-08-20T03:01:00;15.60;99.90
35531;DHT22;21637;53.352;-6.356;2023-08-20T03:03:26;15.60;99.90
35531;DHT22;21637;53.352;-6.356;2023-08-20T03:05:51;15.60;99.90
35531;DHT22;21637;53.352;-6.356;2023-08-20T03:08:17;15.60;99.90
35531;DHT22;21637;53.352;-6.356;2023-08-20T03:10:43;15.70;99.90
35531;DHT22;21637;53.352;-6.356;2023-08-20T03:13:09;15.80;99.90
35531;DHT22;21637;53.352;-6.356;2023-08-20T03:15:34;15.80;99.90
35531;DHT22;21637;53.352;-6.356;2023-08-20T03:18:00;15.90;99.90
35531;DHT22;21637;53.352;-6.356;2023-08-20T03:20:26;15.90;99.90
35531;DHT22;21637;53.352;-6.356;2023-08-20T03:22:53;16.00;99.90
35531;DHT22;21637;53.352;-6.356;2023-08-20T03:25:19;16.00;99.90
35531;DHT22;21637;53.352;-6.356;2023-08-20T03:27:45;15.90;99.90
35531;DHT22;21637;53.352;-6.356;2023-08-20T03:30:11;16.00;99.90
35531;DHT22;21637;53.352;-6.356;2023-08-20T03:32:37;16.00;99.90
35531;DHT22;21637;53.352;-6.356;2023-08-20T03:35:03;16.00;99.90
35531;DHT22;21637;53.352;-6.356;2023-08-20T03:37:28;16.00;99.90
35531;DHT22;21637;53.352;-6.356;2023-08-20T03:39:54;16.00;99.90
35531;DHT22;21637;53.352;-6.356;2023-08-20T03:42:20;16.00;99.90
35531;DHT22;21637;53.352;-6.356;2023-08-20T03:44:46;16.00;99.90
35531;DHT22;21637;53.352;-6.356;2023-08-20T03:47:11;16.00;99.90
35531;DHT22;21637;53.352;-6.356;2023-08-20T03:49:37;16.00;99.90
35531;DHT22;21637;53.352;-6.356;2023-08-20T03:52:04;16.00;99.90
35531;DHT22;21637;53.352;-6.356;2023-08-20T03:54:30;16.00;99.90
35531;DHT22;21637;53.352;-6.356;2023-08-20T03:56:55;16.10;99.90
35531;DHT22;21637;53.352;-6.356;2023-08-20T03:59:21;16.00;99.90
35531;DHT22;21637;53.352;-6.356;2023-08-20T04:01:47;16.10;99.90
35531;DHT22;21637;53.352;-6.356;2023-08-20T04:04:13;16.10;99.90
35531;DHT22;21637;53.352;-6.356;2023-08-20T04:06:39;16.10;99.90
35531;DHT22;21637;53.352;-6.356;2023-08-20T04:09:05;16.10;99.90
35531;DHT22;21637;53.352;-6.356;2023-08-20T04:11:31;16.10;99.90
35531;DHT22;21637;53.352;-6.356;2023-08-20T04:13:57;16.10;99.90
35531;DHT22;21637;53.352;-6.356;2023-08-20T04:16:23;16.10;99.90
35531;DHT22;21637;53.352;-6.356;2023-08-20T04:18:48;16.20;99.90
35531;DHT22;21637;53.352;-6.356;2023-08-20T04:21:14;16.20;99.90
35531;DHT22;21637;53.352;-6.356;2023-08-20T04:23:40;16.20;99.90
35531;DHT22;21637;53.352;-6.356;2023-08-20T04:26:07;16.20;99.90
35531;DHT22;21637;53.352;-6.356;2023-08-20T04:28:33;16.20;99.90
35531;DHT22;21637;53.352;-6.356;2023-08-20T04:31:00;16.20;99.90
35531;DHT22;21637;53.352;-6.356;2023-08-20T04:33:26;16.20;99.90
35531;DHT22;21637;53.352;-6.356;2023-08-20T04:35:52;16.30;99.90
35531;DHT22;21637;53.352;-6.356;2023-08-20T04:38:18;16.30;99.90
35531;DHT22;21637;53.352;-6.356;2023-08-20T04:40:48;16.30;99.90
35531;DHT22;21637;53.352;-6.356;2023-08-20T04:43:14;16.40;99.90
35531;DHT22;21637;53.352;-6.356;2023-08-20T04:45:41;16.30;99.90
35531;DHT22;21637;53.352;-6.356;2023-08-20T04:48:07;16.30;99.90
35531;DHT22;21637;53.352;-6.356;2023-08-20T04:50:33;16.30;99.90
35531;DHT22;21637;53.352;-6.356;2023-08-20T04:52:58;16.30;99.90
35531;DHT22;21637;53.352;-6.356;2023-08-20T04:55:28;16.40;99.90
35531;DHT22;21637;53.352;-6.356;2023-08-20T04:57:54;16.40;99.90
35531;DHT22;21637;53.352;-6.356;2023-08-20T05:00:21;16.30;99.90
35531;DHT22;21637;53.352;-6.356;2023-08-20T05:02:46;16.30;99.90
35531;DHT22;21637;53.352;-6.356;2023-08-20T05:05:12;16.30;99.90
35531;DHT22;21637;53.352;-6.356;2023-08-20T05:07:38;16.20;99.90
35531;DHT22;21637;53.352;-6.356;2023-08-20T05:10:04;16.10;99.90
35531;DHT22;21637;53.352;-6.356;2023-08-20T05:12:30;16.10;99.90
35531;DHT22;21637;53.352;-6.356;2023-08-20T05:14:55;16.10;99.90
35531;DHT22;21637;53.352;-6.356;2023-08-20T05:17:21;16.00;99.90
35531;DHT22;21637;53.352;-6.356;2023-08-20T05:19:47;16.00;99.90
35531;DHT22;21637;53.352;-6.356;2023-08-20T05:22:13;16.00;99.90
35531;DHT22;21637;53.352;-6.356;2023-08-20T05:24:39;16.00;99.90
35531;DHT22;21637;53.352;-6.356;2023-08-20T05:27:22;15.90;99.90
35531;DHT22;21637;53.352;-6.356;2023-08-20T05:29:48;15.90;99.90
35531;DHT22;21637;53.352;-6.356;2023-08-20T05:32:13;15.90;99.90
35531;DHT22;21637;53.352;-6.356;2023-08-20T05:34:41;16.00;99.90
35531;DHT22;21637;53.352;-6.356;2023-08-20T05:37:07;16.00;99.90
35531;DHT22;21637;53.352;-6.356;2023-08-20T05:39:37;16.00;99.90
35531;DHT22;21637;53.352;-6.356;2023-08-20T05:42:04;16.00;99.90
35531;DHT22;21637;53.352;-6.356;2023-08-20T05:44:29;16.00;99.90
35531;DHT22;21637;53.352;-6.356;2023-08-20T05:46:55;16.00;99.90
35531;DHT22;21637;53.352;-6.356;2023-08-20T05:49:21;16.00;99.90
35531;DHT22;21637;53.352;-6.356;2023-08-20T05:51:46;16.00;99.90
35531;DHT22;21637;53.352;-6.356;2023-08-20T05:54:12;16.00;99.90
35531;DHT22;21637;53.352;-6.356;2023-08-20T05:56:38;16.10;99.90
35531;DHT22;21637;53.352;-6.356;2023-08-20T05:59:04;16.10;99.90
35531;DHT22;21637;53.352;-6.356;2023-08-20T06:01:29;16.20;99.90
35531;DHT22;21637;53.352;-6.356;2023-08-20T06:03:55;16.30;99.90
35531;DHT22;21637;53.352;-6.356;2023-08-20T06:06:21;16.30;99.90
35531;DHT22;21637;53.352;-6.356;2023-08-20T06:08:47;16.40;99.90
35531;DHT22;21637;53.352;-6.356;2023-08-20T06:11:13;16.60;99.90
35531;DHT22;21637;53.352;-6.356;2023-08-20T06:13:39;16.70;99.90
35531;DHT22;21637;53.352;-6.356;2023-08-20T06:16:04;16.80;99.90
35531;DHT22;21637;53.352;-6.356;2023-08-20T06:18:30;16.90;99.90
35531;DHT22;21637;53.352;-6.356;2023-08-20T06:20:56;17.00;99.90
35531;DHT22;21637;53.352;-6.356;2023-08-20T06:23:22;17.10;99.90
35531;DHT22;21637;53.352;-6.356;2023-08-20T06:25:47;17.10;99.90
35531;DHT22;21637;53.352;-6.356;2023-08-20T06:28:15;17.10;99.90
35531;DHT22;21637;53.352;-6.356;2023-08-20T06:30:41;17.00;99.90
35531;DHT22;21637;53.352;-6.356;2023-08-20T06:33:06;17.10;99.90
35531;DHT22;21637;53.352;-6.356;2023-08-20T06:35:32;17.00;99.90
35531;DHT22;21637;53.352;-6.356;2023-08-20T06:37:59;17.10;99.90
35531;DHT22;21637;53.352;-6.356;2023-08-20T06:40:25;17.20;99.90
35531;DHT22;21637;53.352;-6.356;2023-08-20T06:42:51;17.20;99.90
35531;DHT22;21637;53.352;-6.356;2023-08-20T06:45:16;17.30;99.90
35531;DHT22;21637;53.352;-6.356;2023-08-20T06:47:42;17.30;99.90
35531;DHT22;21637;53.352;-6.356;2023-08-20T06:50:08;17.30;99.90
35531;DHT22;21637;53.352;-6.356;2023-08-20T06:52:34;17.40;99.90
35531;DHT22;21637;53.352;-6.356;2023-08-20T06:55:00;17.50;99.90
35531;DHT22;21637;53.352;-6.356;2023-08-20T06:57:25;17.50;99.90
35531;DHT22;21637;53.352;-6.356;2023-08-20T06:59:51;17.60;99.90
35531;DHT22;21637;53.352;-6.356;2023-08-20T07:02:17;17.60;99.90
35531;DHT22;21637;53.352;-6.356;2023-08-20T07:04:43;17.70;99.90
35531;DHT22;21637;53.352;-6.356;2023-08-20T07:07:08;17.70;99.90
35531;DHT22;21637;53.352;-6.356;2023-08-20T07:09:35;17.80;99.90
35531;DHT22;21637;53.352;-6.356;2023-08-20T07:12:01;17.90;99.90
35531;DHT22;21637;53.352;-6.356;2023-08-20T07:14:27;17.90;99.90
35531;DHT22;21637;53.352;-6.356;2023-08-20T07:16:53;17.90;99.90
35531;DHT22;21637;53.352;-6.356;2023-08-20T07:19:18;17.90;99.90
35531;DHT22;21637;53.352;-6.356;2023-08-20T07:21:44;17.90;99.90
35531;DHT22;21637;53.352;-6.356;2023-08-20T07:24:10;18.00;99.90
35531;DHT22;21637;53.352;-6.356;2023-08-20T07:26:36;18.10;99.90
35531;DHT22;21637;53.352;-6.356;2023-08-20T07:29:01;18.20;99.90
35531;DHT22;21637;53.352;-6.356;2023-08-20T07:31:29;18.40;99.90
35531;DHT22;21637;53.352;-6.356;2023-08-20T07:33:57;18.50;99.90
35531;DHT22;21637;53.352;-6.356;2023-08-20T07:36:24;18.70;99.90
35531;DHT22;21637;53.352;-6.356;2023-08-20T07:38:51;19.00;99.90
35531;DHT22;21637;53.352;-6.356;2023-08-20T07:41:18;19.00;99.90
35531;DHT22;21637;53.352;-6.356;2023-08-20T07:43:48;19.10;99.90
35531;DHT22;21637;53.352;-6.356;2023-08-20T07:46:14;19.10;99.90
35531;DHT22;21637;53.352;-6.356;2023-08-20T07:48:41;19.10;99.90
35531;DHT22;21637;53.352;-6.356;2023-08-20T07:51:08;19.00;99.90
35531;DHT22;21637;53.352;-6.356;2023-08-20T07:53:34;19.10;99.90
35531;DHT22;21637;53.352;-6.356;2023-08-20T07:56:00;19.10;99.90
35531;DHT22;21637;53.352;-6.356;2023-08-20T07:58:27;19.00;99.90
35531;DHT22;21637;53.352;-6.356;2023-08-20T08:00:54;19.10;99.90
35531;DHT22;21637;53.352;-6.356;2023-08-20T08:03:19;19.20;99.90
35531;DHT22;21637;53.352;-6.356;2023-08-20T08:05:49;19.20;99.90
35531;DHT22;21637;53.352;-6.356;2023-08-20T08:08:16;19.20;99.90
35531;DHT22;21637;53.352;-6.356;2023-08-20T08:10:43;19.20;99.90
35531;DHT22;21637;53.352;-6.356;2023-08-20T08:13:13;19.30;99.90
35531;DHT22;21637;53.352;-6.356;2023-08-20T08:15:39;19.30;99.90
35531;DHT22;21637;53.352;-6.356;2023-08-20T08:18:05;19.30;99.90
35531;DHT22;21637;53.352;-6.356;2023-08-20T08:20:31;19.40;99.90
35531;DHT22;21637;53.352;-6.356;2023-08-20T08:22:57;19.30;99.90
35531;DHT22;21637;53.352;-6.356;2023-08-20T08:25:22;19.40;99.90
35531;DHT22;21637;53.352;-6.356;2023-08-20T08:27:48;19.40;99.90
35531;DHT22;21637;53.352;-6.356;2023-08-20T08:30:14;19.50;99.90
35531;DHT22;21637;53.352;-6.356;2023-08-20T08:32:40;19.60;99.90
35531;DHT22;21637;53.352;-6.356;2023-08-20T08:35:06;19.60;99.90
35531;DHT22;21637;53.352;-6.356;2023-08-20T08:37:32;19.60;99.90
35531;DHT22;21637;53.352;-6.356;2023-08-20T08:39:58;19.70;99.90
35531;DHT22;21637;53.352;-6.356;2023-08-20T08:42:24;19.70;99.90
35531;DHT22;21637;53.352;-6.356;2023-08-20T08:44:50;19.70;99.90
35531;DHT22;21637;53.352;-6.356;2023-08-20T08:47:17;19.80;99.90
35531;DHT22;21637;53.352;-6.356;2023-08-20T08:49:44;19.70;99.90
35531;DHT22;21637;53.352;-6.356;2023-08-20T08:52:12;19.80;99.90
35531;DHT22;21637;53.352;-6.356;2023-08-20T08:54:38;19.80;99.90
35531;DHT22;21637;53.352;-6.356;2023-08-20T08:57:04;19.80;99.90
35531;DHT22;21637;53.352;-6.356;2023-08-20T08:59:31;19.80;99.90
35531;DHT22;21637;53.352;-6.356;2023-08-20T09:01:57;19.90;99.90
35531;DHT22;21637;53.352;-6.356;2023-08-20T09:04:23;19.90;99.90
35531;DHT22;21637;53.352;-6.356;2023-08-20T09:06:54;20.00;99.90
35531;DHT22;21637;53.352;-6.356;2023-08-20T09:09:21;20.00;99.90
35531;DHT22;21637;53.352;-6.356;2023-08-20T09:11:47;20.00;99.90
35531;DHT22;21637;53.352;-6.356;2023-08-20T09:14:23;20.00;99.90
35531;DHT22;21637;53.352;-6.356;2023-08-20T09:17:01;20.10;99.90
35531;DHT22;21637;53.352;-6.356;2023-08-20T09:19:35;20.10;99.90
35531;DHT22;21637;53.352;-6.356;2023-08-20T09:22:01;20.10;99.90
35531;DHT22;21637;53.352;-6.356;2023-08-20T09:24:45;20.10;99.90
35531;DHT22;21637;53.352;-6.356;2023-08-20T09:27:15;20.00;99.90
35531;DHT22;21637;53.352;-6.356;2023-08-20T09:29:46;20.10;99.90
35531;DHT22;21637;53.352;-6.356;2023-08-20T09:32:16;20.10;99.90
35531;DHT22;21637;53.352;-6.356;2023-08-20T09:34:43;20.20;99.90
35531;DHT22;21637;53.352;-6.356;2023-08-20T09:37:13;20.30;99.90
35531;DHT22;21637;53.352;-6.356;2023-08-20T09:39:39;20.40;99.90
35531;DHT22;21637;53.352;-6.356;2023-08-20T09:42:05;20.40;99.90
35531;DHT22;21637;53.352;-6.356;2023-08-20T09:44:36;20.50;99.90
35531;DHT22;21637;53.352;-6.356;2023-08-20T09:47:05;20.60;99.90
35531;DHT22;21637;53.352;-6.356;2023-08-20T09:49:35;20.70;99.90
35531;DHT22;21637;53.352;-6.356;2023-08-20T09:52:04;20.80;99.90
35531;DHT22;21637;53.352;-6.356;2023-08-20T09:55:09;20.80;99.90
35531;DHT22;21637;53.352;-6.356;2023-08-20T09:57:41;20.80;99.90
35531;DHT22;21637;53.352;-6.356;2023-08-20T10:00:09;20.80;99.90
35531;DHT22;21637;53.352;-6.356;2023-08-20T10:02:36;20.90;99.90
35531;DHT22;21637;53.352;-6.356;2023-08-20T10:05:09;21.10;99.90
35531;DHT22;21637;53.352;-6.356;2023-08-20T10:07:36;21.10;99.90
35531;DHT22;21637;53.352;-6.356;2023-08-20T10:10:04;21.10;99.90
35531;DHT22;21637;53.352;-6.356;2023-08-20T10:12:31;21.10;99.90
35531;DHT22;21637;53.352;-6.356;2023-08-20T10:15:01;21.30;99.90
35531;DHT22;21637;53.352;-6.356;2023-08-20T10:17:29;21.40;99.90
35531;DHT22;21637;53.352;-6.356;2023-08-20T10:19:58;21.40;99.90
35531;DHT22;21637;53.352;-6.356;2023-08-20T10:22:32;21.50;99.90
35531;DHT22;21637;53.352;-6.356;2023-08-20T10:24:59;21.70;99.90
35531;DHT22;21637;53.352;-6.356;2023-08-20T10:27:35;21.70;99.90
35531;DHT22;21637;53.352;-6.356;2023-08-20T10:30:01;21.60;99.90
35531;DHT22;21637;53.352;-6.356;2023-08-20T10:32:48;21.60;99.90
35531;DHT22;21637;53.352;-6.356;2023-08-20T10:35:25;21.60;99.90
35531;DHT22;21637;53.352;-6.356;2023-08-20T10:48:50;21.40;99.90
35531;DHT22;21637;53.352;-6.356;2023-08-20T10:51:27;21.40;99.90
35531;DHT22;21637;53.352;-6.356;2023-08-20T10:54:04;21.30;99.90
35531;DHT22;21637;53.352;-6.356;2023-08-20T10:56:41;21.40;99.90
35531;DHT22;21637;53.352;-6.356;2023-08-20T11:01:38;21.40;99.90
35531;DHT22;21637;53.352;-6.356;2023-08-20T11:04:04;21.30;99.90
35531;DHT22;21637;53.352;-6.356;2023-08-20T11:06:33;21.20;99.90
35531;DHT22;21637;53.352;-6.356;2023-08-20T11:08:59;21.10;99.90
35531;DHT22;21637;53.352;-6.356;2023-08-20T11:11:25;21.20;99.90
35531;DHT22;21637;53.352;-6.356;2023-08-20T11:13:51;21.20;99.90
35531;DHT22;21637;53.352;-6.356;2023-08-20T11:16:17;21.20;99.90
35531;DHT22;21637;53.352;-6.356;2023-08-20T11:18:44;21.30;99.90
35531;DHT22;21637;53.352;-6.356;2023-08-20T11:21:12;21.40;99.90
35531;DHT22;21637;53.352;-6.356;2023-08-20T11:23:39;21.40;99.90
35531;DHT22;21637;53.352;-6.356;2023-08-20T11:26:07;21.40;99.90
35531;DHT22;21637;53.352;-6.356;2023-08-20T11:28:33;21.50;99.90
35531;DHT22;21637;53.352;-6.356;2023-08-20T11:31:01;21.60;99.90
35531;DHT22;21637;53.352;-6.356;2023-08-20T11:33:27;21.70;99.90
35531;DHT22;21637;53.352;-6.356;2023-08-20T11:35:53;21.80;99.90
35531;DHT22;21637;53.352;-6.356;2023-08-20T11:38:22;21.70;99.90
35531;DHT22;21637;53.352;-6.356;2023-08-20T11:40:48;21.70;99.90
35531;DHT22;21637;53.352;-6.356;2023-08-20T11:43:14;21.70;99.90
35531;DHT22;21637;53.352;-6.356;2023-08-20T11:45:47;21.80;99.90
35531;DHT22;21637;53.352;-6.356;2023-08-20T11:48:14;21.90;99.90
35531;DHT22;21637;53.352;-6.356;2023-08-20T11:50:40;22.00;99.90
35531;DHT22;21637;53.352;-6.356;2023-08-20T11:53:08;22.00;99.90
35531;DHT22;21637;53.352;-6.356;2023-08-20T11:55:34;21.80;99.90
35531;DHT22;21637;53.352;-6.356;2023-08-20T11:58:00;21.70;99.90
35531;DHT22;21637;53.352;-6.356;2023-08-20T12:00:27;21.80;99.90
35531;DHT22;21637;53.352;-6.356;2023-08-20T12:02:55;21.60;99.90
35531;DHT22;21637;53.352;-6.356;2023-08-20T12:05:28;21.60;99.90
35531;DHT22;21637;53.352;-6.356;2023-08-20T12:08:04;21.80;99.90
35531;DHT22;21637;53.352;-6.356;2023-08-20T12:10:31;21.90;99.90
35531;DHT22;21637;53.352;-6.356;2023-08-20T12:12:58;22.10;99.90
35531;DHT22;21637;53.352;-6.356;2023-08-20T12:15:24;22.10;99.90
35531;DHT22;21637;53.352;-6.356;2023-08-20T12:18:04;22.10;99.90
35531;DHT22;21637;53.352;-6.356;2023-08-20T12:20:31;22.10;99.90
35531;DHT22;21637;53.352;-6.356;2023-08-20T12:23:05;22.00;99.90
35531;DHT22;21637;53.352;-6.356;2023-08-20T12:25:32;22.00;99.90
35531;DHT22;21637;53.352;-6.356;2023-08-20T12:28:00;22.00;99.90
35531;DHT22;21637;53.352;-6.356;2023-08-20T12:30:26;22.10;99.90
35531;DHT22;21637;53.352;-6.356;2023-08-20T12:32:51;22.10;99.90
35531;DHT22;21637;53.352;-6.356;2023-08-20T12:35:17;22.10;99.90
35531;DHT22;21637;53.352;-6.356;2023-08-20T12:37:43;22.10;99.90
35531;DHT22;21637;53.352;-6.356;2023-08-20T12:40:10;22.10;99.90
35531;DHT22;21637;53.352;-6.356;2023-08-20T12:42:38;22.20;99.90
35531;DHT22;21637;53.352;-6.356;2023-08-20T12:45:05;22.30;99.90
35531;DHT22;21637;53.352;-6.356;2023-08-20T12:47:32;22.40;99.90
35531;DHT22;21637;53.352;-6.356;2023-08-20T12:49:57;22.50;99.90
35531;DHT22;21637;53.352;-6.356;2023-08-20T12:52:23;22.50;99.90
35531;DHT22;21637;53.352;-6.356;2023-08-20T12:54:49;22.60;99.90
35531;DHT22;21637;53.352;-6.356;2023-08-20T12:57:15;22.70;99.90
35531;DHT22;21637;53.352;-6.356;2023-08-20T12:59:40;22.70;99.90
35531;DHT22;21637;53.352;-6.356;2023-08-20T13:02:06;22.70;99.90
35531;DHT22;21637;53.352;-6.356;2023-08-20T13:04:32;22.50;99.90
35531;DHT22;21637;53.352;-6.356;2023-08-20T13:06:58;22.50;99.90
35531;DHT22;21637;53.352;-6.356;2023-08-20T13:09:24;22.40;99.90
35531;DHT22;21637;53.352;-6.356;2023-08-20T13:11:53;22.40;99.90
35531;DHT22;21637;53.352;-6.356;2023-08-20T13:14:21;22.20;99.90
35531;DHT22;21637;53.352;-6.356;2023-08-20T13:16:47;22.10;99.90
35531;DHT22;21637;53.352;-6.356;2023-08-20T13:19:13;22.10;99.90
35531;DHT22;21637;53.352;-6.356;2023-08-20T13:21:39;22.10;99.90
35531;DHT22;21637;53.352;-6.356;2023-08-20T13:24:06;22.10;99.90
35531;DHT22;21637;53.352;-6.356;2023-08-20T13:26:32;22.30;99.90
35531;DHT22;21637;53.352;-6.356;2023-08-20T13:28:59;22.30;99.90
35531;DHT22;21637;53.352;-6.356;2023-08-20T13:31:24;22.30;99.90
35531;DHT22;21637;53.352;-6.356;2023-08-20T13:33:51;22.40;99.90
35531;DHT22;21637;53.352;-6.356;2023-08-20T13:36:17;22.40;99.90
35531;DHT22;21637;53.352;-6.356;2023-08-20T13:38:42;22.50;99.90
35531;DHT22;21637;53.352;-6.356;2023-08-20T13:41:08;22.40;99.90
35531;DHT22;21637;53.352;-6.356;2023-08-20T13:43:35;22.30;99.90
35531;DHT22;21637;53.352;-6.356;2023-08-20T13:46:01;22.40;99.90
35531;DHT22;21637;53.352;-6.356;2023-08-20T13:48:26;22.40;99.90
35531;DHT22;21637;53.352;-6.356;2023-08-20T13:50:52;22.50;99.90
35531;DHT22;21637;53.352;-6.356;2023-08-20T13:53:18;22.60;99.90
35531;DHT22;21637;53.352;-6.356;2023-08-20T13:55:43;22.70;99.90
35531;DHT22;21637;53.352;-6.356;2023-08-20T13:58:09;22.70;99.90
35531;DHT22;21637;53.352;-6.356;2023-08-20T14:00:35;22.70;99.90
35531;DHT22;21637;53.352;-6.356;2023-08-20T14:03:01;22.70;99.90
35531;DHT22;21637;53.352;-6.356;2023-08-20T14:05:26;22.80;99.90
35531;DHT22;21637;53.352;-6.356;2023-08-20T14:07:54;22.90;99.90
35531;DHT22;21637;53.352;-6.356;2023-08-20T14:10:20;22.90;99.90
35531;DHT22;21637;53.352;-6.356;2023-08-20T14:12:45;22.80;99.90
35531;DHT22;21637;53.352;-6.356;2023-08-20T14:15:11;22.80;99.90
35531;DHT22;21637;53.352;-6.356;2023-08-20T14:17:37;22.80;99.90
35531;DHT22;21637;53.352;-6.356;2023-08-20T14:20:03;22.80;99.90
35531;DHT22;21637;53.352;-6.356;2023-08-20T14:22:29;22.80;99.90
35531;DHT22;21637;53.352;-6.356;2023-08-20T14:24:55;22.80;99.90
35531;DHT22;21637;53.352;-6.356;2023-08-20T14:27:21;22.80;99.90
35531;DHT22;21637;53.352;-6.356;2023-08-20T14:29:47;22.80;99.90
35531;DHT22;21637;53.352;-6.356;2023-08-20T14:32:13;22.90;99.90
35531;DHT22;21637;53.352;-6.356;2023-08-20T14:34:39;23.00;99.90
35531;DHT22;21637;53.352;-6.356;2023-08-20T14:37:05;23.00;99.90
35531;DHT22;21637;53.352;-6.356;2023-08-20T14:39:31;23.10;99.90
35531;DHT22;21637;53.352;-6.356;2023-08-20T14:41:57;23.20;99.90
35531;DHT22;21637;53.352;-6.356;2023-08-20T14:44:23;23.20;99.90
35531;DHT22;21637;53.352;-6.356;2023-08-20T14:46:49;23.10;99.90
35531;DHT22;21637;53.352;-6.356;2023-08-20T14:49:16;23.10;99.90
35531;DHT22;21637;53.352;-6.356;2023-08-20T14:51:43;23.10;99.90
35531;DHT22;21637;53.352;-6.356;2023-08-20T14:54:09;23.20;99.90
35531;DHT22;21637;53.352;-6.356;2023-08-20T14:56:34;23.20;99.90
35531;DHT22;21637;53.352;-6.356;2023-08-20T14:59:00;23.10;99.90
35531;DHT22;21637;53.352;-6.356;2023-08-20T15:01:26;23.20;99.90
35531;DHT22;21637;53.352;-6.356;2023-08-20T15:03:51;23.30;99.90
35531;DHT22;21637;53.352;-6.356;2023-08-20T15:06:17;23.30;99.90
35531;DHT22;21637;53.352;-6.356;2023-08-20T15:08:47;23.30;99.90
35531;DHT22;21637;53.352;-6.356;2023-08-20T15:11:12;23.40;99.90
35531;DHT22;21637;53.352;-6.356;2023-08-20T15:13:38;23.50;99.90
35531;DHT22;21637;53.352;-6.356;2023-08-20T15:16:04;23.60;99.90
35531;DHT22;21637;53.352;-6.356;2023-08-20T15:18:29;23.80;99.90
35531;DHT22;21637;53.352;-6.356;2023-08-20T15:20:56;23.80;99.90
35531;DHT22;21637;53.352;-6.356;2023-08-20T15:23:23;24.00;99.90
35531;DHT22;21637;53.352;-6.356;2023-08-20T15:25:54;23.80;99.90
35531;DHT22;21637;53.352;-6.356;2023-08-20T15:28:24;23.80;99.90
35531;DHT22;21637;53.352;-6.356;2023-08-20T15:30:51;24.00;99.90
35531;DHT22;21637;53.352;-6.356;2023-08-20T15:33:18;24.20;99.90
35531;DHT22;21637;53.352;-6.356;2023-08-20T15:35:44;24.30;99.90
35531;DHT22;21637;53.352;-6.356;2023-08-20T15:38:10;24.50;99.90